createdAt,value
2023-04-18T00:00:25.196Z,5.87
2023-04-18T00:02:54.880Z,6.57
2023-04-18T00:05:23.594Z,6.03
2023-04-18T00:07:52.705Z,6.30
2023-04-18T00:10:20.702Z,5.53
2023-04-18T00:12:50.017Z,6.50
2023-04-18T00:15:18.499Z,6.20
2023-04-18T00:17:48.163Z,6.43
2023-04-18T00:20:16.215Z,5.80
2023-04-18T00:22:46.360Z,6.67
2023-04-18T00:25:14.374Z,6.43
2023-04-18T00:27:42.969Z,5.57
2023-04-18T00:30:13.260Z,6.30
2023-04-18T00:32:41.245Z,5.43
2023-04-18T00:35:09.771Z,5.67
2023-04-18T00:37:38.202Z,6.10
2023-04-18T00:40:07.213Z,5.20
2023-04-18T00:42:35.116Z,5.47
2023-04-18T00:45:03.099Z,6.17
2023-04-18T00:47:32.591Z,5.63
2023-04-18T00:50:00.636Z,6.13
2023-04-18T00:52:28.863Z,5.90
2023-04-18T00:54:57.111Z,5.80
2023-04-18T00:57:25.499Z,5.97
2023-04-18T00:59:53.434Z,6.03
2023-04-18T01:02:22.246Z,6.20
2023-04-18T01:04:52.161Z,5.57
2023-04-18T01:07:20.105Z,5.73
2023-04-18T01:09:48.626Z,6.80
2023-04-18T01:12:16.687Z,6.00
2023-04-18T01:14:44.650Z,5.70
2023-04-18T01:17:13.315Z,5.63
2023-04-18T01:19:41.545Z,5.90
2023-04-18T01:22:14.392Z,6.27
2023-04-18T01:24:43.689Z,6.00
2023-04-18T01:27:13.369Z,5.50
2023-04-18T01:29:41.795Z,5.63
2023-04-18T01:32:09.699Z,5.70
2023-04-18T01:34:37.691Z,6.23
2023-04-18T01:37:05.659Z,5.73
2023-04-18T01:39:33.604Z,5.73
2023-04-18T01:42:03.004Z,5.60
2023-04-18T01:44:30.884Z,6.07
2023-04-18T01:46:58.928Z,6.13
2023-04-18T01:49:26.908Z,5.60
2023-04-18T01:51:54.863Z,5.67
2023-04-18T01:54:22.818Z,5.83
2023-04-18T01:56:50.709Z,5.70
2023-04-18T01:59:19.960Z,6.17
2023-04-18T02:01:48.020Z,5.73
2023-04-18T02:04:16.196Z,6.17
2023-04-18T02:06:44.321Z,5.30
2023-04-18T02:09:12.381Z,5.70
2023-04-18T02:11:40.257Z,5.63
2023-04-18T02:14:08.282Z,5.47
2023-04-18T02:16:38.764Z,5.70
2023-04-18T02:19:06.899Z,5.40
2023-04-18T02:21:34.865Z,6.17
2023-04-18T02:24:02.994Z,5.13
2023-04-18T02:26:31.268Z,5.47
2023-04-18T02:28:59.607Z,6.30
2023-04-18T02:31:27.509Z,5.30
2023-04-18T02:33:56.767Z,5.30
2023-04-18T02:36:26.133Z,5.77
2023-04-18T02:38:54.248Z,5.80
2023-04-18T02:41:22.174Z,5.60
2023-04-18T02:43:50.331Z,5.67
2023-04-18T02:46:18.478Z,6.20
2023-04-18T02:48:46.384Z,6.13
2023-04-18T02:51:15.937Z,5.67
2023-04-18T02:53:43.907Z,6.00
2023-04-18T02:56:12.942Z,5.87
2023-04-18T02:58:40.858Z,5.23
2023-04-18T03:01:08.779Z,5.50
2023-04-18T03:03:36.682Z,5.50
2023-04-18T03:06:04.864Z,6.33
2023-04-18T03:08:34.097Z,5.53
2023-04-18T03:11:01.990Z,5.40
2023-04-18T03:13:29.909Z,6.27
2023-04-18T03:15:57.921Z,6.27
2023-04-18T03:18:26.098Z,5.90
2023-04-18T03:20:54.010Z,5.70
2023-04-18T03:23:21.960Z,5.63
2023-04-18T03:25:51.250Z,5.70
2023-04-18T03:28:19.214Z,5.57
2023-04-18T03:30:47.131Z,5.93
2023-04-18T03:33:16.992Z,5.97
2023-04-18T03:35:44.936Z,5.47
2023-04-18T03:38:12.814Z,6.00
2023-04-18T03:40:42.080Z,6.50
2023-04-18T03:43:11.549Z,5.40
2023-04-18T03:45:39.515Z,6.00
2023-04-18T03:48:08.187Z,5.70
2023-04-18T03:50:36.283Z,5.70
2023-04-18T03:53:04.220Z,5.43
2023-04-18T03:55:32.358Z,5.93
2023-04-18T03:58:00.579Z,6.17
2023-04-18T04:00:30.191Z,6.33
2023-04-18T04:02:58.346Z,5.80
2023-04-18T04:05:26.878Z,5.97
2023-04-18T04:07:55.135Z,5.17
2023-04-18T04:10:23.116Z,5.60
2023-04-18T04:12:51.274Z,6.03
2023-04-18T04:15:19.303Z,6.13
2023-04-18T04:17:48.724Z,5.40
2023-04-18T04:20:22.807Z,5.83
2023-04-18T04:22:50.697Z,5.90
2023-04-18T04:25:18.658Z,6.30
2023-04-18T04:27:46.695Z,5.63
2023-04-18T04:30:14.934Z,6.27
2023-04-18T04:32:44.641Z,6.63
2023-04-18T04:35:13.983Z,5.70
2023-04-18T04:37:44.251Z,5.93
2023-04-18T04:40:12.876Z,5.73
2023-04-18T04:42:41.147Z,5.77
2023-04-18T04:45:10.507Z,5.77
2023-04-18T04:47:38.517Z,6.03
2023-04-18T04:50:14.727Z,5.67
2023-04-18T04:52:44.437Z,6.70
2023-04-18T04:55:13.719Z,6.30
2023-04-18T04:57:41.601Z,6.37
2023-04-18T05:00:11.125Z,6.73
2023-04-18T05:02:39.126Z,6.73
2023-04-18T05:05:07.418Z,5.47
2023-04-18T05:07:35.357Z,6.50
2023-04-18T05:10:05.066Z,6.60
2023-04-18T05:12:32.965Z,7.30
2023-04-18T05:15:00.886Z,7.30
2023-04-18T05:17:28.874Z,7.03
2023-04-18T05:19:56.795Z,7.33
2023-04-18T05:22:24.786Z,6.97
2023-04-18T05:24:52.767Z,7.63
2023-04-18T05:27:22.197Z,7.43
2023-04-18T05:29:50.419Z,7.03
2023-04-18T05:32:18.413Z,6.67
2023-04-18T05:34:46.899Z,7.57
2023-04-18T05:37:14.800Z,8.23
2023-04-18T05:39:43.318Z,8.07
2023-04-18T05:42:11.181Z,6.67
2023-04-18T05:44:40.401Z,6.80
2023-04-18T05:47:08.228Z,6.93
2023-04-18T05:49:36.279Z,7.13
2023-04-18T05:52:04.210Z,6.97
2023-04-18T05:54:32.246Z,7.37
2023-04-18T05:57:00.866Z,7.17
2023-04-18T05:59:29.799Z,7.33
2023-04-18T06:01:59.017Z,7.20
2023-04-18T06:04:27.162Z,7.73
2023-04-18T06:06:55.175Z,7.20
2023-04-18T06:09:23.058Z,7.13
2023-04-18T06:11:50.979Z,6.53
2023-04-18T06:14:18.829Z,7.40
2023-04-18T06:16:46.878Z,7.03
2023-04-18T06:19:16.211Z,7.10
2023-04-18T06:21:44.125Z,6.97
2023-04-18T06:24:12.329Z,7.23
2023-04-18T06:26:40.972Z,7.33
2023-04-18T06:29:08.869Z,7.83
2023-04-18T06:31:36.825Z,6.17
2023-04-18T06:34:04.696Z,7.53
2023-04-18T06:36:34.026Z,7.53
2023-04-18T06:39:02.021Z,6.80
2023-04-18T06:41:30.022Z,7.10
2023-04-18T06:44:02.683Z,6.70
2023-04-18T06:46:32.015Z,5.60
2023-04-18T06:49:00.045Z,6.30
2023-04-18T06:51:27.877Z,6.67
2023-04-18T06:53:57.114Z,6.43
2023-04-18T06:56:25.014Z,5.50
2023-04-18T06:58:54.082Z,6.87
2023-04-18T07:01:22.036Z,6.17
2023-04-18T07:03:50.021Z,5.93
2023-04-18T07:06:18.681Z,5.70
2023-04-18T07:08:46.556Z,5.50
2023-04-18T07:11:18.343Z,5.37
2023-04-18T07:13:47.342Z,4.97
2023-04-18T07:16:15.319Z,5.87
2023-04-18T07:18:43.255Z,5.60
2023-04-18T07:21:11.117Z,4.83
2023-04-18T07:23:39.019Z,4.87
2023-04-18T07:26:09.408Z,4.33
2023-04-18T07:28:38.661Z,4.90
2023-04-18T07:31:11.027Z,5.07
2023-04-18T07:33:39.192Z,5.03
2023-04-18T07:36:07.671Z,5.03
2023-04-18T07:38:36.379Z,4.70
2023-04-18T07:41:04.794Z,5.10
2023-04-18T07:43:32.720Z,4.83
2023-04-18T07:46:02.178Z,4.97
2023-04-18T07:48:30.133Z,4.50
2023-04-18T07:50:58.112Z,4.37
2023-04-18T07:53:26.019Z,4.63
2023-04-18T07:55:54.380Z,4.77
2023-04-18T07:58:22.497Z,4.73
2023-04-18T08:00:50.606Z,4.27
2023-04-18T08:03:20.177Z,4.53
2023-04-18T08:05:49.009Z,4.80
2023-04-18T08:08:18.174Z,4.63
2023-04-18T08:10:46.239Z,5.33
2023-04-18T08:13:14.197Z,4.40
2023-04-18T08:15:42.331Z,4.80
2023-04-18T08:18:10.338Z,4.60
2023-04-18T08:20:40.146Z,4.53
2023-04-18T08:23:11.301Z,4.33
2023-04-18T08:25:40.901Z,5.03
2023-04-18T08:28:09.023Z,4.50
2023-04-18T08:30:37.043Z,4.50
2023-04-18T08:33:05.100Z,4.67
2023-04-18T08:35:33.592Z,4.90
2023-04-18T08:38:03.505Z,5.37
2023-04-18T08:40:31.708Z,4.67
2023-04-18T08:43:04.920Z,4.93
2023-04-18T08:45:33.392Z,4.60
2023-04-18T08:48:03.687Z,4.53
2023-04-18T08:50:32.260Z,4.20
2023-04-18T08:53:01.847Z,4.20
2023-04-18T08:55:33.506Z,3.97
2023-04-18T08:58:01.451Z,4.10
2023-04-18T09:00:30.579Z,3.90
2023-04-18T09:02:59.185Z,4.20
2023-04-18T09:05:28.432Z,4.97
2023-04-18T09:07:58.066Z,4.23
2023-04-18T09:10:28.652Z,3.93
2023-04-18T09:12:59.940Z,4.10
2023-04-18T09:15:29.238Z,4.97
2023-04-18T09:17:59.213Z,4.70
2023-04-18T09:20:35.578Z,4.07
2023-04-18T09:23:05.279Z,4.40
2023-04-18T09:25:40.164Z,4.20
2023-04-18T09:28:24.933Z,4.63
2023-04-18T09:30:54.350Z,4.30
2023-04-18T09:33:29.102Z,3.83
2023-04-18T09:36:00.224Z,4.70
2023-04-18T09:38:41.044Z,3.77
2023-04-18T09:41:10.103Z,4.83
2023-04-18T09:43:39.583Z,4.40
2023-04-18T09:46:09.370Z,4.57
2023-04-18T09:48:37.657Z,4.30
2023-04-18T09:51:08.311Z,3.90
2023-04-18T09:53:40.619Z,3.80
2023-04-18T09:56:14.015Z,3.50
2023-04-18T09:58:44.934Z,3.87
2023-04-18T10:01:13.392Z,4.07
2023-04-18T10:03:47.657Z,4.40
2023-04-18T10:06:17.524Z,4.00
2023-04-18T10:08:46.465Z,3.63
2023-04-18T10:11:14.662Z,3.73
2023-04-18T10:13:48.218Z,4.00
2023-04-18T10:16:16.932Z,3.67
2023-04-18T10:18:44.856Z,3.70
2023-04-18T10:21:13.258Z,3.43
2023-04-18T10:23:41.548Z,3.50
2023-04-18T10:26:10.131Z,3.57
2023-04-18T10:28:54.301Z,3.50
2023-04-18T10:31:23.479Z,3.77
2023-04-18T10:34:04.080Z,3.50
2023-04-18T10:36:34.027Z,3.40
2023-04-18T10:39:04.286Z,3.50
2023-04-18T10:41:32.941Z,3.47
2023-04-18T10:44:22.516Z,3.17
2023-04-18T10:47:19.539Z,3.40
2023-04-18T10:50:00.946Z,3.57
2023-04-18T10:52:29.758Z,3.77
2023-04-18T10:55:10.801Z,3.40
2023-04-18T10:57:42.901Z,4.13
2023-04-18T11:00:15.228Z,3.90
2023-04-18T11:02:50.460Z,3.33
2023-04-18T11:05:23.666Z,4.00
2023-04-18T11:07:51.828Z,3.97
2023-04-18T11:10:21.281Z,3.77
2023-04-18T11:12:49.491Z,4.23
2023-04-18T11:15:21.654Z,3.70
2023-04-18T11:17:58.364Z,3.67
2023-04-18T11:20:26.668Z,3.23
2023-04-18T11:22:56.136Z,3.67
2023-04-18T11:25:26.987Z,3.30
2023-04-18T11:27:55.816Z,3.23
2023-04-18T11:30:25.388Z,3.00
2023-04-18T11:32:54.137Z,3.50
2023-04-18T11:35:22.291Z,3.73
2023-04-18T11:37:51.192Z,3.43
2023-04-18T11:40:19.220Z,3.43
2023-04-18T11:42:47.253Z,3.10
2023-04-18T11:45:16.224Z,4.20
2023-04-18T11:47:47.380Z,4.10
2023-04-18T11:50:15.323Z,3.60
2023-04-18T11:52:43.524Z,3.83
2023-04-18T11:55:18.387Z,3.73
2023-04-18T11:57:53.898Z,3.60
2023-04-18T12:00:32.758Z,3.67
2023-04-18T12:03:04.544Z,3.30
2023-04-18T12:05:34.518Z,3.73
2023-04-18T12:08:11.325Z,4.07
2023-04-18T12:10:46.123Z,3.33
2023-04-18T12:13:14.164Z,3.20
2023-04-18T12:15:44.699Z,3.30
2023-04-18T12:18:15.340Z,3.23
2023-04-18T12:20:50.262Z,3.10
2023-04-18T12:23:32.044Z,3.10
2023-04-18T12:26:01.092Z,3.30
2023-04-18T12:28:29.192Z,3.47
2023-04-18T12:30:57.070Z,3.47
2023-04-18T12:33:26.877Z,4.00
2023-04-18T12:35:55.989Z,3.23
2023-04-18T12:38:24.909Z,4.07
2023-04-18T12:40:53.377Z,3.60
2023-04-18T12:43:22.558Z,3.00
2023-04-18T12:45:51.081Z,3.33
2023-04-18T12:48:19.050Z,3.67
2023-04-18T12:50:48.355Z,3.57
2023-04-18T12:53:16.273Z,3.43
2023-04-18T12:55:47.166Z,2.87
2023-04-18T12:58:18.497Z,3.30
2023-04-18T13:00:46.657Z,3.27
2023-04-18T13:03:14.729Z,2.93
2023-04-18T13:05:42.823Z,3.30
2023-04-18T13:08:16.724Z,3.17
2023-04-18T13:10:45.652Z,3.50
2023-04-18T13:13:13.782Z,3.10
2023-04-18T13:15:41.863Z,3.37
2023-04-18T13:18:09.847Z,3.10
2023-04-18T13:20:37.806Z,3.33
2023-04-18T13:23:05.801Z,3.30
2023-04-18T13:25:35.097Z,3.50
2023-04-18T13:28:02.993Z,3.40
2023-04-18T13:30:31.744Z,3.13
2023-04-18T13:32:59.750Z,3.50
2023-04-18T13:35:27.714Z,3.40
2023-04-18T13:37:56.014Z,3.50
2023-04-18T13:40:24.216Z,3.33
2023-04-18T13:42:53.511Z,3.77
2023-04-18T13:45:21.701Z,3.63
2023-04-18T13:47:49.702Z,3.07
2023-04-18T13:50:17.678Z,3.90
2023-04-18T13:52:46.881Z,3.47
2023-04-18T13:55:16.129Z,3.90
2023-04-18T13:57:44.099Z,3.57
2023-04-18T14:00:15.141Z,3.23
2023-04-18T14:02:43.218Z,3.93
2023-04-18T14:05:11.556Z,3.50
2023-04-18T14:07:39.528Z,4.57
2023-04-18T14:10:08.771Z,4.03
2023-04-18T14:12:38.316Z,3.60
2023-04-18T14:15:07.400Z,3.67
2023-04-18T14:17:36.747Z,3.70
2023-04-18T14:20:07.742Z,3.97
2023-04-18T14:22:35.759Z,3.50
2023-04-18T14:25:03.665Z,3.90
2023-04-18T14:27:31.550Z,3.77
2023-04-18T14:29:59.773Z,3.90
2023-04-18T14:32:27.836Z,4.20
2023-04-18T14:34:58.775Z,3.90
2023-04-18T14:37:26.602Z,3.77
2023-04-18T14:39:54.478Z,4.10
2023-04-18T14:42:22.741Z,4.40
2023-04-18T14:44:50.640Z,4.27
2023-04-18T14:47:18.528Z,4.30
2023-04-18T14:49:46.488Z,4.53
2023-04-18T14:52:15.832Z,4.20
2023-04-18T14:54:43.969Z,4.07
2023-04-18T14:57:12.829Z,4.63
2023-04-18T14:59:40.762Z,4.60
2023-04-18T15:02:08.755Z,4.13
2023-04-18T15:04:36.734Z,4.23
2023-04-18T15:07:04.865Z,4.30
2023-04-18T15:09:38.557Z,4.17
2023-04-18T15:12:08.068Z,4.40
2023-04-18T15:14:36.112Z,4.40
2023-04-18T15:17:04.543Z,4.00
2023-04-18T15:19:32.827Z,4.10
2023-04-18T15:22:00.905Z,4.07
2023-04-18T15:24:28.861Z,4.17
2023-04-18T15:26:58.748Z,3.87
2023-04-18T15:29:26.974Z,3.70
2023-04-18T15:31:54.918Z,3.83
2023-04-18T15:34:22.903Z,3.80
2023-04-18T15:36:50.816Z,4.63
2023-04-18T15:39:22.000Z,4.13
2023-04-18T15:41:52.851Z,4.03
2023-04-18T15:44:22.323Z,3.30
2023-04-18T15:46:50.688Z,3.37
2023-04-18T15:49:18.536Z,3.57
2023-04-18T15:51:46.443Z,3.93
2023-04-18T15:54:14.518Z,4.37
2023-04-18T15:56:44.584Z,4.17
2023-04-18T15:59:13.199Z,3.83
2023-04-18T16:01:45.191Z,3.80
2023-04-18T16:04:14.343Z,3.80
2023-04-18T16:06:42.549Z,3.60
2023-04-18T16:09:10.454Z,3.60
2023-04-18T16:11:38.379Z,4.00
2023-04-18T16:14:06.451Z,3.40
2023-04-18T16:16:34.926Z,3.50
2023-04-18T16:19:04.320Z,3.50
2023-04-18T16:21:32.445Z,3.53
2023-04-18T16:24:00.373Z,3.60
2023-04-18T16:26:28.893Z,3.43
2023-04-18T16:28:57.028Z,3.60
2023-04-18T16:31:25.023Z,3.53
2023-04-18T16:33:53.436Z,3.93
2023-04-18T16:36:22.774Z,3.57
2023-04-18T16:38:51.213Z,3.70
2023-04-18T16:41:19.189Z,3.50
2023-04-18T16:43:47.179Z,3.40
2023-04-18T16:46:15.397Z,3.40
2023-04-18T16:48:45.272Z,3.20
2023-04-18T16:51:13.649Z,3.50
2023-04-18T16:53:42.926Z,3.27
2023-04-18T16:56:10.828Z,2.90
2023-04-18T16:58:38.741Z,3.10
2023-04-18T17:01:08.143Z,2.90
2023-04-18T17:03:36.535Z,3.07
2023-04-18T17:06:05.841Z,3.10
2023-04-18T17:08:34.260Z,3.30
2023-04-18T17:11:03.767Z,2.83
2023-04-18T17:13:32.088Z,3.37
2023-04-18T17:16:00.106Z,2.83
2023-04-18T17:18:29.271Z,3.00
2023-04-18T17:20:57.157Z,2.83
2023-04-18T17:23:25.084Z,3.00
2023-04-18T17:25:52.974Z,3.10
2023-04-18T17:28:23.640Z,3.30
2023-04-18T17:30:51.834Z,3.30
2023-04-18T17:33:19.727Z,2.60
2023-04-18T17:35:48.179Z,3.10
2023-04-18T17:38:18.374Z,2.63
2023-04-18T17:40:46.330Z,3.10
2023-04-18T17:43:14.225Z,3.00
2023-04-18T17:45:44.107Z,2.83
2023-04-18T17:48:12.095Z,2.70
2023-04-18T17:50:40.367Z,2.77
2023-04-18T17:53:08.333Z,2.60
2023-04-18T17:55:36.323Z,2.70
2023-04-18T17:58:05.115Z,3.50
2023-04-18T18:00:33.077Z,2.67
2023-04-18T18:03:03.870Z,2.77
2023-04-18T18:05:32.026Z,2.80
2023-04-18T18:08:01.299Z,3.10
2023-04-18T18:10:29.627Z,2.20
2023-04-18T18:12:57.568Z,2.90
2023-04-18T18:15:25.655Z,2.70
2023-04-18T18:17:54.788Z,2.97
2023-04-18T18:20:24.585Z,2.90
2023-04-18T18:22:55.698Z,3.00
2023-04-18T18:25:23.549Z,3.30
2023-04-18T18:27:51.591Z,2.80
2023-04-18T18:30:19.574Z,3.10
2023-04-18T18:32:47.455Z,2.80
2023-04-18T18:35:15.424Z,2.80
2023-04-18T18:37:44.724Z,2.73
2023-04-18T18:40:13.426Z,3.10
2023-04-18T18:42:42.449Z,2.97
2023-04-18T18:45:11.313Z,2.67
2023-04-18T18:47:40.185Z,2.97
2023-04-18T18:50:09.142Z,2.93
2023-04-18T18:52:40.568Z,3.03
2023-04-18T18:55:11.556Z,3.20
2023-04-18T18:57:39.483Z,3.00
2023-04-18T19:00:10.770Z,3.30
2023-04-18T19:02:38.996Z,3.37
2023-04-18T19:05:08.004Z,3.13
2023-04-18T19:07:35.866Z,3.40
2023-04-18T19:10:04.967Z,2.87
2023-04-18T19:12:35.309Z,3.13
2023-04-18T19:15:03.197Z,2.97
2023-04-18T19:17:31.118Z,3.20
2023-04-18T19:20:01.159Z,3.33
2023-04-18T19:22:29.410Z,3.10
2023-04-18T19:24:57.525Z,3.40
2023-04-18T19:27:25.586Z,2.60
2023-04-18T19:29:54.816Z,2.83
2023-04-18T19:32:22.837Z,2.80
2023-04-18T19:34:51.067Z,3.10
2023-04-18T19:37:18.973Z,3.10
2023-04-18T19:39:46.824Z,3.07
2023-04-18T19:42:14.729Z,3.57
2023-04-18T19:44:42.676Z,3.67
2023-04-18T19:47:11.974Z,3.60
2023-04-18T19:49:40.103Z,3.50
2023-04-18T19:52:07.974Z,3.27
2023-04-18T19:54:35.886Z,2.80
2023-04-18T19:57:04.599Z,3.23
2023-04-18T19:59:32.567Z,3.07
2023-04-18T20:02:03.297Z,3.00
2023-04-18T20:04:36.422Z,3.10
2023-04-18T20:07:04.823Z,2.67
2023-04-18T20:09:32.771Z,3.10
2023-04-18T20:12:01.974Z,3.10
2023-04-18T20:14:30.202Z,3.23
2023-04-18T20:16:58.220Z,3.13
2023-04-18T20:19:26.930Z,3.30
2023-04-18T20:21:56.215Z,2.77
2023-04-18T20:24:27.911Z,3.20
2023-04-18T20:26:55.813Z,3.73
2023-04-18T20:29:23.665Z,3.30
2023-04-18T20:31:51.691Z,3.40
2023-04-18T20:34:20.199Z,3.17
2023-04-18T20:36:49.847Z,3.40
2023-04-18T20:39:19.084Z,3.13
2023-04-18T20:41:50.870Z,3.20
2023-04-18T20:44:20.915Z,3.60
2023-04-18T20:46:49.018Z,3.23
2023-04-18T20:49:17.171Z,3.50
2023-04-18T20:51:45.248Z,3.53
2023-04-18T20:54:13.501Z,3.40
2023-04-18T20:56:43.169Z,3.40
2023-04-18T20:59:11.305Z,3.50
2023-04-18T21:01:39.389Z,3.63
2023-04-18T21:04:07.436Z,3.60
2023-04-18T21:06:36.589Z,3.70
2023-04-18T21:09:04.658Z,3.07
2023-04-18T21:11:32.520Z,2.97
2023-04-18T21:14:03.691Z,3.50
2023-04-18T21:16:31.858Z,3.53
2023-04-18T21:18:59.892Z,3.33
2023-04-18T21:21:27.847Z,3.43
2023-04-18T21:23:55.749Z,3.47
2023-04-18T21:26:23.623Z,4.00
2023-04-18T21:28:56.282Z,4.07
2023-04-18T21:31:25.887Z,4.50
2023-04-18T21:33:54.589Z,4.03
2023-04-18T21:36:22.999Z,3.97
2023-04-18T21:38:53.367Z,4.37
2023-04-18T21:41:21.617Z,4.07
2023-04-18T21:43:49.532Z,3.40
2023-04-18T21:46:18.221Z,3.70
2023-04-18T21:48:48.588Z,3.80
2023-04-18T21:51:17.742Z,3.80
2023-04-18T21:53:45.875Z,3.87
2023-04-18T21:56:14.052Z,4.33
2023-04-18T21:58:42.282Z,4.03
2023-04-18T22:01:10.304Z,4.37
2023-04-18T22:03:38.457Z,3.70
2023-04-18T22:06:08.004Z,4.23
2023-04-18T22:08:35.947Z,4.20
2023-04-18T22:11:04.865Z,4.13
2023-04-18T22:13:33.851Z,4.30
2023-04-18T22:16:03.541Z,3.80
2023-04-18T22:18:33.827Z,3.83
2023-04-18T22:21:02.379Z,3.87
2023-04-18T22:23:32.024Z,4.07
2023-04-18T22:26:00.078Z,3.80
2023-04-18T22:28:28.792Z,4.00
2023-04-18T22:30:57.027Z,3.93
2023-04-18T22:33:25.361Z,3.97
2023-04-18T22:35:55.550Z,3.67
2023-04-18T22:38:23.632Z,3.80
2023-04-18T22:40:52.990Z,4.00
2023-04-18T22:43:23.686Z,3.43
2023-04-18T22:45:52.146Z,3.53
2023-04-18T22:48:20.244Z,3.67
2023-04-18T22:50:49.700Z,3.63
2023-04-18T22:53:18.091Z,3.30
2023-04-18T22:55:46.320Z,3.67
2023-04-18T22:58:15.557Z,3.50
2023-04-18T23:00:43.791Z,3.90
2023-04-18T23:03:11.997Z,3.80
2023-04-18T23:05:40.847Z,3.80
2023-04-18T23:08:08.807Z,4.27
2023-04-18T23:10:36.785Z,4.37
2023-04-18T23:13:04.827Z,3.97
2023-04-18T23:15:34.227Z,3.80
2023-04-18T23:18:02.285Z,3.80
2023-04-18T23:20:30.249Z,4.00
2023-04-18T23:22:58.298Z,3.47
2023-04-18T23:25:26.252Z,3.47
2023-04-18T23:27:54.200Z,3.63
2023-04-18T23:30:22.072Z,3.80
2023-04-18T23:32:51.283Z,3.80
2023-04-18T23:35:19.373Z,3.63
2023-04-18T23:37:49.544Z,3.50
2023-04-18T23:40:17.482Z,3.63
2023-04-18T23:42:45.458Z,3.93
2023-04-18T23:45:13.581Z,3.87
2023-04-18T23:47:41.511Z,4.00
2023-04-18T23:50:12.053Z,3.53
2023-04-18T23:52:40.505Z,4.20
2023-04-18T23:55:09.201Z,3.93
2023-04-18T23:57:37.094Z,3.80
